createdAt,value
2019-05-03T00:02:43.036Z,5.30
2019-05-03T00:07:45.982Z,5.47
2019-05-03T00:12:47.912Z,5.27
2019-05-03T00:17:49.985Z,5.63
2019-05-03T00:22:52.418Z,5.40
2019-05-03T00:27:55.179Z,5.07
2019-05-03T00:32:57.095Z,5.30
2019-05-03T00:38:02.098Z,5.10
2019-05-03T00:43:04.232Z,5.30
2019-05-03T00:48:07.578Z,5.13
2019-05-03T00:53:11.589Z,4.70
2019-05-03T00:58:13.482Z,5.30
2019-05-03T01:03:15.456Z,5.20
2019-05-03T01:08:17.439Z,4.47
2019-05-03T01:13:19.372Z,4.60
2019-05-03T01:18:21.956Z,5.17
2019-05-03T01:23:25.957Z,4.20
2019-05-03T01:28:28.140Z,4.47
2019-05-03T01:33:32.006Z,4.67
2019-05-03T01:38:33.899Z,4.37
2019-05-03T01:43:35.829Z,4.60
2019-05-03T01:49:01.564Z,5.00
2019-05-03T01:54:03.656Z,4.73
2019-05-03T01:59:05.601Z,4.50
2019-05-03T02:04:32.218Z,4.63
2019-05-03T02:09:34.212Z,4.40
2019-05-03T02:14:38.432Z,4.63
2019-05-03T02:19:42.168Z,3.90
2019-05-03T02:24:44.209Z,3.83
2019-05-03T02:29:46.168Z,4.00
2019-05-03T02:34:48.274Z,3.63
2019-05-03T02:39:55.433Z,3.33
2019-05-03T02:44:58.654Z,3.87
2019-05-03T02:50:05.844Z,3.87
2019-05-03T02:55:09.158Z,3.60
2019-05-03T03:00:12.685Z,3.90
2019-05-03T03:05:16.669Z,3.50
2019-05-03T03:10:18.465Z,3.60
2019-05-03T03:15:21.993Z,3.63
2019-05-03T03:20:25.547Z,3.60
2019-05-03T03:25:35.984Z,4.23
2019-05-03T03:31:27.804Z,4.10
2019-05-03T03:36:46.062Z,4.83
2019-05-03T03:41:35.235Z,3.80
2019-05-03T03:46:39.110Z,4.70
2019-05-03T03:51:45.404Z,3.67
2019-05-03T03:57:02.924Z,3.60
2019-05-03T04:02:00.752Z,3.50
2019-05-03T04:07:02.953Z,3.57
2019-05-03T04:12:06.023Z,3.37
2019-05-03T04:17:19.051Z,3.30
2019-05-03T04:22:21.063Z,4.47
2019-05-03T04:27:27.009Z,3.60
2019-05-03T04:32:28.948Z,4.07
2019-05-03T04:37:31.007Z,3.50
2019-05-03T04:42:35.696Z,3.77
2019-05-03T04:47:37.138Z,3.53
2019-05-03T04:52:38.984Z,3.70
2019-05-03T04:57:46.848Z,3.43
2019-05-03T05:02:46.295Z,2.97
2019-05-03T05:07:50.534Z,2.70
2019-05-03T05:12:54.969Z,3.47
2019-05-03T05:18:08.160Z,3.00
2019-05-03T05:23:10.073Z,3.20
2019-05-03T05:28:21.123Z,2.90
2019-05-03T05:33:25.038Z,2.97
2019-05-03T05:38:27.033Z,3.07
2019-05-03T05:43:28.833Z,3.47
2019-05-03T05:48:36.359Z,3.20
2019-05-03T05:53:38.180Z,3.03
2019-05-03T05:58:47.306Z,2.93
2019-05-03T06:03:49.224Z,2.20
2019-05-03T06:09:07.210Z,2.80
2019-05-03T06:14:15.195Z,2.43
2019-05-03T06:19:39.418Z,3.23
2019-05-03T06:24:50.249Z,2.80
2019-05-03T06:29:56.625Z,2.77
2019-05-03T06:34:58.523Z,2.73
2019-05-03T06:40:00.513Z,2.63
2019-05-03T06:45:09.609Z,2.77
2019-05-03T06:50:06.977Z,2.53
2019-05-03T06:55:10.750Z,2.30
2019-05-03T07:00:34.942Z,2.63
2019-05-03T07:05:54.882Z,2.70
2019-05-03T07:10:58.618Z,2.37
2019-05-03T07:16:06.275Z,2.50
2019-05-03T07:21:08.181Z,2.80
2019-05-03T07:26:10.263Z,2.17
2019-05-03T07:31:12.094Z,2.43
2019-05-03T07:36:15.215Z,2.70
2019-05-03T07:41:17.670Z,3.10
2019-05-03T07:46:24.576Z,2.70
2019-05-03T07:51:26.237Z,2.80
2019-05-03T07:56:32.040Z,2.80
2019-05-03T08:01:42.140Z,2.80
2019-05-03T08:06:46.965Z,2.60
2019-05-03T08:11:48.878Z,2.33
2019-05-03T08:16:50.992Z,2.13
2019-05-03T08:21:52.972Z,2.63
2019-05-03T08:26:55.727Z,2.33
2019-05-03T08:32:28.250Z,2.80
2019-05-03T08:37:45.241Z,2.60
2019-05-03T08:42:49.748Z,2.90
2019-05-03T08:47:51.662Z,2.50
2019-05-03T08:52:55.681Z,2.77
2019-05-03T08:57:57.401Z,2.77
2019-05-03T09:02:59.298Z,3.13
2019-05-03T09:08:01.486Z,2.93
2019-05-03T09:13:06.408Z,3.30
2019-05-03T09:18:08.549Z,2.97
2019-05-03T09:23:14.723Z,3.20
2019-05-03T09:28:16.777Z,2.90
2019-05-03T09:33:19.189Z,2.30
2019-05-03T09:38:22.568Z,2.90
2019-05-03T09:43:25.115Z,2.93
2019-05-03T09:48:27.094Z,2.43
2019-05-03T09:53:32.309Z,2.70
2019-05-03T09:58:36.399Z,2.37
2019-05-03T10:03:38.175Z,2.43
2019-05-03T10:08:42.362Z,2.43
2019-05-03T10:13:48.468Z,2.33
2019-05-03T10:18:48.100Z,2.50
2019-05-03T10:23:51.472Z,2.70
2019-05-03T10:28:55.056Z,2.93
2019-05-03T10:34:00.920Z,2.53
2019-05-03T10:39:06.032Z,2.40
2019-05-03T10:44:08.147Z,2.50
2019-05-03T10:49:10.244Z,2.20
2019-05-03T10:54:14.782Z,2.03
2019-05-03T10:59:19.824Z,1.90
2019-05-03T11:04:22.069Z,2.37
2019-05-03T11:09:25.860Z,2.70
2019-05-03T11:14:28.308Z,2.47
2019-05-03T11:19:30.248Z,2.30
2019-05-03T11:24:34.658Z,2.90
2019-05-03T11:29:36.112Z,2.30
2019-05-03T11:34:45.103Z,2.33
2019-05-03T11:39:49.120Z,2.20
2019-05-03T11:44:51.160Z,2.33
2019-05-03T11:49:54.654Z,2.43
2019-05-03T11:54:57.882Z,2.73
2019-05-03T11:59:59.898Z,2.83
2019-05-03T12:05:04.978Z,2.60
2019-05-03T12:10:16.888Z,2.30
2019-05-03T12:15:12.573Z,2.70
2019-05-03T12:20:17.884Z,2.50
2019-05-03T12:25:19.501Z,2.40
2019-05-03T12:30:24.935Z,2.73
2019-05-03T12:35:26.066Z,2.33
2019-05-03T12:40:28.258Z,2.70
2019-05-03T12:45:31.267Z,2.23
2019-05-03T12:50:34.628Z,2.40
2019-05-03T12:55:37.027Z,2.30
2019-05-03T13:01:10.523Z,2.70
2019-05-03T13:06:14.825Z,2.43
2019-05-03T13:11:16.431Z,2.37
2019-05-03T13:16:20.254Z,2.80
2019-05-03T13:21:22.200Z,2.73
2019-05-03T13:26:25.398Z,2.40
2019-05-03T13:31:27.396Z,2.53
2019-05-03T13:36:29.481Z,2.33
2019-05-03T13:41:31.527Z,2.97
2019-05-03T13:46:35.290Z,2.30
2019-05-03T13:51:37.182Z,2.40
2019-05-03T13:56:39.166Z,3.03
2019-05-03T14:01:41.064Z,3.07
2019-05-03T14:06:44.683Z,2.97
2019-05-03T14:11:46.860Z,2.83
2019-05-03T14:16:51.449Z,2.83
2019-05-03T14:21:55.096Z,2.73
2019-05-03T14:26:57.017Z,2.60
2019-05-03T14:31:58.918Z,2.67
2019-05-03T14:37:01.116Z,2.40
2019-05-03T14:42:04.814Z,2.63
2019-05-03T14:47:07.056Z,2.50
2019-05-03T14:52:08.958Z,2.87
2019-05-03T14:57:25.835Z,2.60
2019-05-03T15:02:43.433Z,2.70
2019-05-03T15:07:41.253Z,2.80
2019-05-03T15:12:45.198Z,2.53
2019-05-03T15:17:47.001Z,2.50
2019-05-03T15:22:48.943Z,2.33
2019-05-03T15:27:51.128Z,2.40
2019-05-03T15:32:59.801Z,2.57
2019-05-03T15:37:57.673Z,2.50
2019-05-03T15:43:16.177Z,3.10
2019-05-03T15:48:24.660Z,2.93
2019-05-03T15:53:26.630Z,2.70
2019-05-03T15:58:31.747Z,3.07
2019-05-03T16:03:35.595Z,2.60
2019-05-03T16:08:39.121Z,2.80
2019-05-03T16:13:41.050Z,2.67
2019-05-03T16:18:44.855Z,2.70
2019-05-03T16:23:47.071Z,3.20
2019-05-03T16:29:08.788Z,2.80
2019-05-03T16:34:11.139Z,2.93
2019-05-03T16:39:17.872Z,2.73
2019-05-03T16:44:20.066Z,2.83
2019-05-03T16:49:24.672Z,2.87
2019-05-03T16:54:28.023Z,3.10
2019-05-03T16:59:31.383Z,3.77
2019-05-03T17:04:45.979Z,3.13
2019-05-03T17:10:04.916Z,3.40
2019-05-03T17:15:06.985Z,3.67
2019-05-03T17:20:09.089Z,3.00
2019-05-03T17:25:15.441Z,2.57
2019-05-03T17:30:17.514Z,2.80
2019-05-03T17:35:20.086Z,3.50
2019-05-03T17:40:50.021Z,2.60
2019-05-03T17:45:54.988Z,2.73
2019-05-03T17:50:58.966Z,2.70
2019-05-03T17:56:18.758Z,3.23
2019-05-03T18:01:38.978Z,3.33
2019-05-03T18:06:48.966Z,3.40
2019-05-03T18:11:55.813Z,3.47
2019-05-03T18:16:58.150Z,3.57
2019-05-03T18:22:00.240Z,3.00
2019-05-03T18:27:04.208Z,3.63
2019-05-03T18:32:08.759Z,3.90
2019-05-03T18:37:10.898Z,3.50
2019-05-03T18:42:18.067Z,3.53
2019-05-03T18:47:25.188Z,3.10
2019-05-03T18:52:27.195Z,3.43
2019-05-03T18:57:29.193Z,3.40
2019-05-03T19:02:31.154Z,3.80
2019-05-03T19:07:51.333Z,4.37
2019-05-03T19:12:57.188Z,3.40
2019-05-03T19:18:21.656Z,3.50
2019-05-03T19:23:31.038Z,4.00
2019-05-03T19:28:40.424Z,3.60
2019-05-03T19:33:42.355Z,4.00
2019-05-03T19:38:45.271Z,3.80
2019-05-03T19:43:48.454Z,4.10
2019-05-03T19:48:50.390Z,3.03
2019-05-03T19:53:55.087Z,3.30
2019-05-03T19:59:01.966Z,3.90
2019-05-03T20:04:32.497Z,4.10
2019-05-03T20:09:35.721Z,4.53
2019-05-03T20:14:42.154Z,4.67
2019-05-03T20:19:45.180Z,5.20
2019-05-03T20:24:49.167Z,4.87
2019-05-03T20:29:51.167Z,5.30
2019-05-03T20:34:55.010Z,5.10
2019-05-03T20:39:56.944Z,5.33
2019-05-03T20:44:59.468Z,5.33
2019-05-03T20:50:15.478Z,5.30
2019-05-03T20:55:19.074Z,4.77
2019-05-03T21:00:25.428Z,4.90
2019-05-03T21:05:31.722Z,5.70
2019-05-03T21:10:31.172Z,4.43
2019-05-03T21:15:55.391Z,3.80
2019-05-03T21:21:03.748Z,3.53
2019-05-03T21:26:13.078Z,3.70
2019-05-03T21:31:12.636Z,4.20
2019-05-03T21:36:15.118Z,3.87
2019-05-03T21:41:17.735Z,3.30
2019-05-03T21:46:36.122Z,3.90
2019-05-03T21:51:41.084Z,3.97
2019-05-03T21:56:44.729Z,5.07
2019-05-03T22:01:48.385Z,5.20
2019-05-03T22:06:50.461Z,5.00
2019-05-03T22:11:52.483Z,5.03
2019-05-03T22:17:16.885Z,4.67
2019-05-03T22:22:37.450Z,4.77
2019-05-03T22:27:41.081Z,5.40
2019-05-03T22:32:44.516Z,5.83
2019-05-03T22:37:47.797Z,5.10
2019-05-03T22:42:49.694Z,5.77
2019-05-03T22:47:51.796Z,5.10
2019-05-03T22:52:57.796Z,5.40
2019-05-03T22:57:59.636Z,5.30
2019-05-03T23:03:01.540Z,5.00
2019-05-03T23:08:05.347Z,4.40
2019-05-03T23:13:08.512Z,5.63
2019-05-03T23:18:10.429Z,5.07
2019-05-03T23:23:31.918Z,5.53
2019-05-03T23:28:36.389Z,5.33
2019-05-03T23:33:38.196Z,5.60
2019-05-03T23:38:40.151Z,4.90
2019-05-03T23:43:45.150Z,3.33
2019-05-03T23:48:48.427Z,2.87
2019-05-03T23:53:50.454Z,3.17
2019-05-03T23:58:52.275Z,2.97
